createdAt,value
2019-03-01T00:01:59.459Z,3.83
2019-03-01T00:04:31.163Z,3.78
2019-03-01T00:07:19.263Z,3.74
2019-03-01T00:10:13.279Z,3.58
2019-03-01T00:13:21.316Z,3.47
2019-03-01T00:16:19.622Z,3.53
2019-03-01T00:19:17.112Z,3.75
2019-03-01T00:21:54.521Z,3.75
2019-03-01T00:24:47.891Z,3.73
2019-03-01T00:27:51.265Z,3.69
2019-03-01T00:30:54.902Z,3.75
2019-03-01T00:33:53.831Z,3.67
2019-03-01T00:36:48.351Z,3.59
2019-03-01T00:39:37.656Z,3.63
2019-03-01T00:42:27.876Z,3.71
2019-03-01T00:44:56.493Z,3.63
2019-03-01T00:47:25.050Z,3.61
2019-03-01T00:49:56.876Z,3.56
2019-03-01T00:52:28.155Z,3.51
2019-03-01T00:54:56.768Z,3.53
2019-03-01T00:57:28.025Z,3.55
2019-03-01T00:59:59.623Z,3.61
2019-03-01T01:02:31.309Z,3.67
2019-03-01T01:04:59.950Z,3.64
2019-03-01T01:07:31.562Z,3.64
2019-03-01T01:10:03.781Z,3.83
2019-03-01T01:12:35.322Z,3.84
2019-03-01T01:15:08.248Z,3.77
2019-03-01T01:17:37.378Z,3.80
2019-03-01T01:20:10.313Z,3.95
2019-03-01T01:22:41.567Z,4.00
2019-03-01T01:25:10.180Z,4.10
2019-03-01T01:27:41.102Z,4.08
2019-03-01T01:30:12.867Z,4.03
2019-03-01T01:32:44.558Z,4.08
2019-03-01T01:35:17.068Z,4.06
2019-03-01T01:37:45.946Z,4.10
2019-03-01T01:40:17.295Z,4.12
2019-03-01T01:42:49.168Z,4.21
2019-03-01T01:45:20.989Z,4.21
2019-03-01T01:47:50.379Z,4.35
2019-03-01T01:50:21.781Z,4.25
2019-03-01T01:52:53.475Z,4.14
2019-03-01T01:55:25.320Z,4.26
2019-03-01T01:57:53.929Z,4.25
2019-03-01T02:00:25.388Z,4.25
2019-03-01T02:02:54.269Z,4.16
2019-03-01T02:05:25.872Z,4.33
2019-03-01T02:07:54.542Z,4.34
2019-03-01T02:10:26.328Z,4.25
2019-03-01T02:12:57.702Z,4.09
2019-03-01T02:15:29.395Z,4.09
2019-03-01T02:17:58.110Z,3.91
2019-03-01T02:20:29.585Z,3.66
2019-03-01T02:22:58.300Z,3.56
2019-03-01T02:25:29.919Z,3.69
2019-03-01T02:27:58.602Z,3.58
2019-03-01T02:30:38.503Z,3.58
2019-03-01T02:33:07.103Z,3.54
2019-03-01T02:35:41.561Z,3.54
2019-03-01T02:38:10.145Z,3.64
2019-03-01T02:40:38.802Z,3.73
2019-03-01T02:43:07.523Z,3.73
2019-03-01T02:45:36.227Z,3.85
2019-03-01T02:48:05.561Z,3.93
2019-03-01T02:50:39.834Z,3.98
2019-03-01T02:53:11.628Z,3.98
2019-03-01T02:55:43.518Z,3.83
2019-03-01T02:58:12.135Z,3.83
2019-03-01T03:00:40.946Z,3.81
2019-03-01T03:03:12.836Z,3.82
2019-03-01T03:05:45.950Z,3.68
2019-03-01T03:08:17.221Z,3.64
2019-03-01T03:10:48.503Z,3.56
2019-03-01T03:13:18.358Z,3.58
2019-03-01T03:15:51.551Z,3.59
2019-03-01T03:18:20.155Z,3.69
2019-03-01T03:20:51.434Z,3.89
2019-03-01T03:23:23.113Z,3.94
2019-03-01T03:25:54.387Z,3.94
2019-03-01T03:28:25.655Z,3.86
2019-03-01T03:30:57.237Z,3.81
2019-03-01T03:33:25.845Z,4.05
2019-03-01T03:35:57.422Z,4.11
2019-03-01T03:38:26.082Z,4.17
2019-03-01T03:40:57.578Z,4.19
2019-03-01T03:43:28.984Z,4.19
2019-03-01T03:46:00.576Z,4.03
2019-03-01T03:48:29.123Z,4.11
2019-03-01T03:51:00.451Z,4.11
2019-03-01T03:53:32.538Z,4.24
2019-03-01T03:56:04.017Z,4.24
2019-03-01T03:58:32.827Z,4.23
2019-03-01T04:01:04.408Z,4.23
2019-03-01T04:03:35.679Z,4.18
2019-03-01T04:06:06.993Z,4.21
2019-03-01T04:08:35.561Z,4.13
2019-03-01T04:11:07.154Z,4.13
2019-03-01T04:13:35.711Z,4.10
2019-03-01T04:16:04.435Z,4.06
2019-03-01T04:18:33.341Z,4.06
2019-03-01T04:21:04.942Z,4.12
2019-03-01T04:23:36.373Z,4.44
2019-03-01T04:26:08.259Z,4.52
2019-03-01T04:28:39.847Z,4.48
2019-03-01T04:31:10.946Z,4.28
2019-03-01T04:33:39.514Z,4.44
2019-03-01T04:36:10.015Z,4.58
2019-03-01T04:38:41.547Z,4.43
2019-03-01T04:41:13.065Z,4.33
2019-03-01T04:43:41.677Z,4.52
2019-03-01T04:46:13.258Z,4.52
2019-03-01T04:48:41.872Z,4.52
2019-03-01T04:51:13.156Z,4.38
2019-03-01T04:53:44.732Z,4.79
2019-03-01T04:56:16.016Z,4.79
2019-03-01T04:58:44.621Z,4.97
2019-03-01T05:01:16.363Z,4.97
2019-03-01T05:03:47.608Z,4.89
2019-03-01T05:06:19.254Z,4.98
2019-03-01T05:08:51.037Z,4.88
2019-03-01T05:11:19.649Z,4.87
2019-03-01T05:13:51.151Z,4.64
2019-03-01T05:16:22.909Z,4.60
2019-03-01T05:18:51.520Z,4.46
2019-03-01T05:21:22.893Z,4.54
2019-03-01T05:23:51.505Z,4.54
2019-03-01T05:26:20.073Z,4.54
2019-03-01T05:28:51.591Z,4.65
2019-03-01T05:31:23.475Z,4.66
2019-03-01T05:33:52.454Z,4.61
2019-03-01T05:36:24.315Z,4.79
2019-03-01T05:38:52.896Z,4.70
2019-03-01T05:41:24.272Z,4.79
2019-03-01T05:43:55.852Z,4.89
2019-03-01T05:46:27.125Z,4.89
2019-03-01T05:48:56.145Z,4.70
2019-03-01T05:51:27.523Z,4.81
2019-03-01T05:53:58.793Z,4.81
2019-03-01T05:56:27.398Z,4.70
2019-03-01T05:59:13.929Z,4.84
2019-03-01T06:02:08.393Z,4.84
2019-03-01T06:04:45.781Z,4.81
2019-03-01T06:07:29.458Z,4.73
2019-03-01T06:10:09.383Z,4.67
2019-03-01T06:12:49.826Z,4.77
2019-03-01T06:15:42.082Z,4.77
2019-03-01T06:18:31.453Z,4.91
2019-03-01T06:21:32.184Z,5.04
2019-03-01T06:24:24.674Z,5.04
2019-03-01T06:27:16.953Z,5.11
2019-03-01T06:30:04.683Z,5.24
2019-03-01T06:32:51.560Z,5.17
2019-03-01T06:35:32.108Z,5.04
2019-03-01T06:38:49.251Z,5.01
2019-03-01T06:41:37.524Z,4.98
2019-03-01T06:44:11.695Z,5.15
2019-03-01T06:47:09.111Z,5.13
2019-03-01T06:49:53.691Z,5.26
2019-03-01T06:52:23.671Z,5.44
2019-03-01T06:54:52.249Z,5.33
2019-03-01T06:57:24.058Z,5.25
2019-03-01T06:59:52.974Z,5.19
2019-03-01T07:02:25.916Z,5.19
2019-03-01T07:05:01.313Z,5.33
2019-03-01T07:07:38.018Z,5.41
2019-03-01T07:10:11.156Z,5.41
2019-03-01T07:12:39.737Z,5.20
2019-03-01T07:15:08.924Z,5.26
2019-03-01T07:17:40.389Z,5.30
2019-03-01T07:20:10.488Z,5.30
2019-03-01T07:22:43.441Z,5.46
2019-03-01T07:25:11.992Z,5.37
2019-03-01T07:27:43.536Z,5.41
2019-03-01T07:30:13.726Z,5.31
2019-03-01T07:32:46.031Z,5.32
2019-03-01T07:35:17.985Z,5.17
2019-03-01T07:37:47.107Z,5.14
2019-03-01T07:40:15.717Z,5.18
2019-03-01T07:42:44.323Z,5.18
2019-03-01T07:45:14.695Z,5.51
2019-03-01T07:47:43.915Z,5.40
2019-03-01T07:50:14.064Z,5.56
2019-03-01T07:52:45.439Z,5.56
2019-03-01T07:55:14.049Z,5.51
2019-03-01T07:57:42.976Z,5.42
2019-03-01T08:00:18.152Z,5.54
2019-03-01T08:02:46.723Z,5.63
2019-03-01T08:05:17.983Z,5.63
2019-03-01T08:07:56.005Z,5.44
2019-03-01T08:10:22.402Z,5.44
2019-03-01T08:12:53.082Z,5.46
2019-03-01T08:15:24.557Z,5.48
2019-03-01T08:17:53.119Z,5.33
2019-03-01T08:20:21.793Z,5.36
2019-03-01T08:22:53.167Z,5.19
2019-03-01T08:25:24.778Z,5.41
2019-03-01T08:27:53.371Z,5.41
2019-03-01T08:30:24.651Z,5.52
2019-03-01T08:32:56.607Z,5.52
2019-03-01T08:35:31.006Z,5.70
2019-03-01T08:38:01.195Z,5.86
2019-03-01T08:40:29.776Z,5.98
2019-03-01T08:43:01.340Z,5.71
2019-03-01T08:45:33.716Z,5.71
2019-03-01T08:48:03.117Z,5.78
2019-03-01T08:50:34.453Z,5.69
2019-03-01T08:53:06.236Z,5.56
2019-03-01T08:55:35.610Z,5.66
2019-03-01T08:58:09.610Z,5.66
2019-03-01T09:00:43.719Z,5.71
2019-03-01T09:03:30.485Z,5.94
2019-03-01T09:05:59.033Z,5.94
2019-03-01T09:08:30.340Z,5.96
2019-03-01T09:10:59.557Z,6.01
2019-03-01T09:13:31.131Z,6.24
2019-03-01T09:15:59.757Z,5.95
2019-03-01T09:18:31.323Z,5.95
2019-03-01T09:21:05.645Z,5.82
2019-03-01T09:23:30.202Z,5.69
2019-03-01T09:25:58.781Z,5.69
2019-03-01T09:28:32.815Z,5.63
2019-03-01T09:31:03.741Z,5.63
2019-03-01T09:33:35.335Z,5.82
2019-03-01T09:36:10.950Z,5.83
2019-03-01T09:38:42.892Z,5.87
2019-03-01T09:41:12.255Z,6.02
2019-03-01T09:43:43.850Z,5.99
2019-03-01T09:46:12.458Z,5.81
2019-03-01T09:48:41.186Z,5.81
2019-03-01T09:51:12.807Z,5.73
2019-03-01T09:53:44.161Z,5.73
2019-03-01T09:56:15.557Z,5.77
2019-03-01T09:58:47.033Z,5.74
2019-03-01T10:01:18.160Z,5.81
2019-03-01T10:03:47.148Z,5.98
2019-03-01T10:06:18.711Z,5.93
2019-03-01T10:08:50.273Z,5.93
2019-03-01T10:11:21.893Z,5.93
2019-03-01T10:13:53.352Z,5.84
2019-03-01T10:16:21.938Z,5.61
2019-03-01T10:18:53.212Z,5.54
2019-03-01T10:21:21.889Z,5.45
2019-03-01T10:23:53.577Z,5.47
2019-03-01T10:26:22.329Z,5.52
2019-03-01T10:28:50.891Z,5.53
2019-03-01T10:31:22.455Z,5.57
2019-03-01T10:33:51.015Z,5.67
2019-03-01T10:36:19.610Z,5.62
2019-03-01T10:38:51.032Z,5.73
2019-03-01T10:41:19.602Z,5.89
2019-03-01T10:43:50.888Z,5.93
2019-03-01T10:46:22.394Z,6.08
2019-03-01T10:48:51.982Z,6.21
2019-03-01T10:51:23.213Z,6.10
2019-03-01T10:53:54.759Z,6.26
2019-03-01T10:56:27.408Z,6.29
2019-03-01T10:58:58.903Z,6.15
2019-03-01T11:01:30.480Z,6.27
2019-03-01T11:04:02.239Z,6.12
2019-03-01T11:06:30.823Z,6.16
2019-03-01T11:09:02.080Z,6.35
2019-03-01T11:11:30.649Z,6.29
2019-03-01T11:14:01.875Z,6.29
2019-03-01T11:16:33.134Z,6.40
2019-03-01T11:19:04.596Z,6.33
2019-03-01T11:21:35.949Z,6.38
2019-03-01T11:24:09.269Z,6.40
2019-03-01T11:26:37.859Z,6.34
2019-03-01T11:29:09.658Z,6.38
2019-03-01T11:31:41.190Z,6.37
2019-03-01T11:34:12.662Z,6.28
2019-03-01T11:36:41.251Z,6.45
2019-03-01T11:39:14.102Z,6.48
2019-03-01T11:41:42.684Z,6.46
2019-03-01T11:44:14.259Z,6.22
2019-03-01T11:46:43.160Z,6.32
2019-03-01T11:49:12.121Z,6.23
2019-03-01T11:51:43.361Z,6.22
2019-03-01T11:54:14.954Z,6.19
2019-03-01T11:56:46.254Z,6.12
2019-03-01T11:59:14.837Z,6.16
2019-03-01T12:01:46.125Z,6.25
2019-03-01T12:04:15.246Z,6.13
2019-03-01T12:06:46.921Z,6.17
2019-03-01T12:09:18.238Z,6.25
2019-03-01T12:11:49.525Z,6.32
2019-03-01T12:14:22.312Z,6.00
2019-03-01T12:16:51.124Z,6.00
2019-03-01T12:19:22.701Z,6.11
2019-03-01T12:21:51.317Z,6.02
2019-03-01T12:24:22.885Z,6.08
2019-03-01T12:26:51.431Z,6.18
2019-03-01T12:29:23.244Z,6.23
2019-03-01T12:31:54.470Z,6.18
2019-03-01T12:34:25.762Z,6.29
2019-03-01T12:36:57.427Z,6.40
2019-03-01T12:39:28.707Z,6.44
2019-03-01T12:41:57.599Z,6.40
2019-03-01T12:44:29.283Z,6.39
2019-03-01T12:47:00.771Z,6.38
2019-03-01T12:49:29.355Z,6.45
2019-03-01T12:52:00.890Z,6.40
2019-03-01T12:54:32.199Z,6.56
2019-03-01T12:57:04.423Z,6.61
2019-03-01T12:59:37.809Z,6.41
2019-03-01T13:02:09.251Z,6.41
2019-03-01T13:04:40.832Z,6.41
2019-03-01T13:07:10.570Z,6.36
2019-03-01T13:09:42.772Z,6.13
2019-03-01T13:12:11.328Z,6.13
2019-03-01T13:14:43.071Z,6.38
2019-03-01T13:17:11.683Z,6.38
2019-03-01T13:19:43.092Z,6.05
2019-03-01T13:22:11.675Z,6.05
2019-03-01T13:24:40.666Z,6.07
2019-03-01T13:27:17.057Z,6.14
2019-03-01T13:29:47.455Z,6.20
2019-03-01T13:32:19.973Z,6.22
2019-03-01T13:34:50.455Z,6.26
2019-03-01T13:37:20.367Z,6.19
2019-03-01T13:39:52.322Z,6.10
2019-03-01T13:42:24.128Z,6.03
2019-03-01T13:44:52.705Z,6.12
2019-03-01T13:47:23.925Z,5.87
2019-03-01T13:49:52.536Z,5.87
2019-03-01T13:52:26.682Z,5.79
2019-03-01T13:54:54.220Z,5.63
2019-03-01T13:57:22.776Z,5.63
2019-03-01T13:59:51.403Z,5.64
2019-03-01T14:02:22.985Z,5.41
2019-03-01T14:04:54.526Z,5.41
2019-03-01T14:07:25.992Z,5.24
2019-03-01T14:09:57.311Z,5.35
2019-03-01T14:12:25.893Z,5.39
2019-03-01T14:14:59.347Z,5.40
2019-03-01T14:17:27.480Z,5.40
2019-03-01T14:19:56.497Z,5.12
2019-03-01T14:22:27.888Z,5.18
2019-03-01T14:24:56.621Z,5.18
2019-03-01T14:27:29.579Z,5.21
2019-03-01T14:29:58.491Z,5.31
2019-03-01T14:32:27.074Z,5.26
2019-03-01T14:34:56.000Z,5.18
2019-03-01T14:37:24.562Z,5.18
2019-03-01T14:39:56.051Z,5.01
2019-03-01T14:42:24.927Z,4.95
2019-03-01T14:44:53.885Z,4.89
2019-03-01T14:47:25.270Z,4.72
2019-03-01T14:49:57.626Z,4.88
2019-03-01T14:52:24.309Z,5.09
2019-03-01T14:54:52.887Z,5.09
2019-03-01T14:57:26.323Z,5.19
2019-03-01T15:00:01.272Z,5.19
2019-03-01T15:02:47.512Z,5.21
2019-03-01T15:05:19.592Z,5.08
2019-03-01T15:07:46.439Z,5.06
2019-03-01T15:10:15.315Z,4.98
2019-03-01T15:12:43.883Z,4.98
2019-03-01T15:15:13.898Z,4.91
2019-03-01T15:17:45.431Z,4.83
2019-03-01T15:20:17.237Z,4.97
2019-03-01T15:22:49.665Z,4.97
2019-03-01T15:25:18.380Z,5.04
2019-03-01T15:27:50.001Z,4.95
2019-03-01T15:30:23.192Z,4.88
2019-03-01T15:32:52.594Z,4.87
2019-03-01T15:35:24.178Z,5.00
2019-03-01T15:37:52.741Z,4.99
2019-03-01T15:40:21.372Z,4.99
2019-03-01T15:42:54.681Z,5.16
2019-03-01T15:45:26.291Z,5.19
2019-03-01T15:47:55.267Z,5.19
2019-03-01T15:50:27.364Z,5.27
2019-03-01T15:52:57.842Z,5.24
2019-03-01T15:55:26.391Z,5.24
2019-03-01T15:57:58.054Z,5.28
2019-03-01T16:00:29.618Z,5.28
2019-03-01T16:02:57.029Z,5.36
2019-03-01T16:05:28.892Z,5.31
2019-03-01T16:07:57.567Z,5.29
2019-03-01T16:10:28.929Z,5.23
2019-03-01T16:13:00.411Z,5.33
2019-03-01T16:15:28.970Z,5.38
2019-03-01T16:18:00.934Z,5.38
2019-03-01T16:20:28.525Z,5.33
2019-03-01T16:22:57.839Z,5.33
2019-03-01T16:25:26.392Z,5.32
2019-03-01T16:27:57.932Z,5.28
2019-03-01T16:30:29.541Z,5.28
2019-03-01T16:33:01.034Z,5.22
2019-03-01T16:35:32.312Z,5.17
2019-03-01T16:38:04.684Z,5.17
2019-03-01T16:40:36.270Z,5.26
2019-03-01T16:43:04.977Z,5.26
2019-03-01T16:45:38.806Z,5.26
2019-03-01T16:48:07.759Z,5.14
2019-03-01T16:50:37.090Z,5.20
2019-03-01T16:53:11.454Z,5.16
2019-03-01T16:55:42.819Z,5.03
2019-03-01T16:58:14.209Z,5.06
2019-03-01T17:00:45.915Z,5.04
2019-03-01T17:03:17.913Z,4.97
2019-03-01T17:05:49.739Z,4.97
2019-03-01T17:08:21.050Z,4.94
2019-03-01T17:10:52.410Z,4.93
2019-03-01T17:13:23.689Z,4.99
2019-03-01T17:15:54.195Z,4.98
2019-03-01T17:18:25.559Z,4.97
2019-03-01T17:20:57.102Z,4.99
2019-03-01T17:23:25.682Z,4.97
2019-03-01T17:25:56.984Z,4.97
2019-03-01T17:28:26.620Z,4.96
2019-03-01T17:30:58.548Z,4.96
2019-03-01T17:33:29.923Z,4.90
2019-03-01T17:36:01.298Z,4.87
2019-03-01T17:38:32.648Z,4.78
2019-03-01T17:41:01.301Z,4.78
2019-03-01T17:43:32.749Z,4.80
2019-03-01T17:46:00.534Z,4.62
2019-03-01T17:48:32.125Z,4.62
2019-03-01T17:51:01.371Z,4.55
2019-03-01T17:53:32.755Z,4.50
2019-03-01T17:56:01.297Z,4.43
2019-03-01T17:58:33.145Z,4.40
2019-03-01T18:01:04.536Z,4.35
2019-03-01T18:03:37.989Z,4.32
2019-03-01T18:06:09.350Z,4.31
2019-03-01T18:08:39.602Z,4.31
2019-03-01T18:11:12.620Z,4.41
2019-03-01T18:13:41.232Z,4.41
2019-03-01T18:16:09.839Z,4.41
2019-03-01T18:18:42.547Z,4.43
2019-03-01T18:21:13.183Z,4.49
2019-03-01T18:23:44.613Z,4.55
2019-03-01T18:26:13.140Z,4.41
2019-03-01T18:28:42.145Z,4.44
2019-03-01T18:31:10.786Z,4.44
2019-03-01T18:33:39.372Z,4.37
2019-03-01T18:36:10.748Z,4.52
2019-03-01T18:38:42.432Z,4.52
2019-03-01T18:41:11.214Z,4.45
2019-03-01T18:43:39.853Z,4.35
2019-03-01T18:46:08.683Z,4.35
2019-03-01T18:48:40.598Z,4.41
2019-03-01T18:51:10.838Z,4.30
2019-03-01T18:53:42.190Z,4.30
2019-03-01T18:56:11.006Z,4.30
2019-03-01T18:58:45.728Z,4.29
2019-03-01T19:01:15.827Z,4.36
2019-03-01T19:03:47.707Z,4.24
2019-03-01T19:06:17.218Z,4.24
2019-03-01T19:08:48.847Z,4.21
2019-03-01T19:11:20.127Z,4.33
2019-03-01T19:13:51.603Z,4.24
2019-03-01T19:16:25.343Z,4.22
2019-03-01T19:18:56.401Z,4.22
2019-03-01T19:21:27.877Z,4.36
2019-03-01T19:23:59.575Z,4.36
2019-03-01T19:26:33.762Z,4.35
2019-03-01T19:29:02.704Z,4.41
2019-03-01T19:31:34.820Z,4.32
2019-03-01T19:34:06.625Z,4.32
2019-03-01T19:36:39.764Z,4.38
2019-03-01T19:39:19.539Z,4.25
2019-03-01T19:41:54.554Z,4.20
2019-03-01T19:44:21.476Z,4.22
2019-03-01T19:46:53.265Z,4.19
2019-03-01T19:49:21.873Z,4.23
2019-03-01T19:51:52.969Z,4.20
2019-03-01T19:54:24.431Z,4.31
2019-03-01T19:56:53.044Z,4.41
2019-03-01T19:59:21.660Z,4.35
2019-03-01T20:01:52.568Z,4.21
2019-03-01T20:04:23.731Z,4.06
2019-03-01T20:06:52.345Z,3.94
2019-03-01T20:09:20.926Z,4.01
2019-03-01T20:11:49.575Z,3.96
2019-03-01T20:14:18.204Z,4.01
2019-03-01T20:16:47.212Z,4.01
2019-03-01T20:19:17.044Z,4.01
2019-03-01T20:21:50.613Z,4.13
2019-03-01T20:24:19.653Z,4.05
2019-03-01T20:26:51.369Z,4.17
2019-03-01T20:29:19.987Z,4.08
2019-03-01T20:31:51.393Z,4.00
2019-03-01T20:34:20.049Z,4.11
2019-03-01T20:36:49.586Z,4.02
2019-03-01T20:39:19.647Z,4.08
2019-03-01T20:41:48.538Z,4.11
2019-03-01T20:44:18.691Z,4.08
2019-03-01T20:46:47.861Z,4.09
2019-03-01T20:49:16.499Z,3.99
2019-03-01T20:51:45.073Z,4.03
2019-03-01T20:54:13.637Z,3.94
2019-03-01T20:56:42.253Z,4.00
2019-03-01T20:59:12.644Z,4.08
2019-03-01T21:01:41.228Z,4.15
2019-03-01T21:04:09.851Z,4.11
2019-03-01T21:06:41.507Z,4.17
2019-03-01T21:09:14.170Z,4.09
2019-03-01T21:11:44.423Z,4.11
2019-03-01T21:14:16.034Z,4.04
2019-03-01T21:16:47.719Z,4.13
2019-03-01T21:19:16.349Z,4.02
2019-03-01T21:21:44.965Z,4.07
2019-03-01T21:24:16.470Z,4.07
2019-03-01T21:26:51.234Z,4.13
2019-03-01T21:29:18.354Z,4.07
2019-03-01T21:31:47.419Z,4.05
2019-03-01T21:34:16.081Z,3.92
2019-03-01T21:36:44.699Z,3.87
2019-03-01T21:39:13.343Z,3.83
2019-03-01T21:41:44.773Z,3.86
2019-03-01T21:44:13.672Z,3.86
2019-03-01T21:46:43.267Z,3.92
2019-03-01T21:49:12.064Z,3.92
2019-03-01T21:51:41.109Z,3.97
2019-03-01T21:54:16.449Z,3.97
2019-03-01T21:56:55.611Z,3.73
2019-03-01T21:59:13.678Z,3.80
2019-03-01T22:01:43.786Z,3.70
2019-03-01T22:04:12.420Z,3.73
2019-03-01T22:06:44.216Z,3.80
2019-03-01T22:09:13.465Z,3.74
2019-03-01T22:11:42.086Z,3.64
2019-03-01T22:14:14.012Z,3.67
2019-03-01T22:16:41.480Z,3.55
2019-03-01T22:19:10.086Z,3.52
2019-03-01T22:21:38.712Z,3.67
2019-03-01T22:24:08.896Z,3.75
2019-03-01T22:26:37.732Z,3.69
2019-03-01T22:29:12.099Z,3.48
2019-03-01T22:31:39.809Z,3.52
2019-03-01T22:34:11.892Z,3.53
2019-03-01T22:36:40.499Z,3.56
2019-03-01T22:39:13.668Z,3.48
2019-03-01T22:41:43.925Z,3.42
2019-03-01T22:44:12.534Z,3.39
2019-03-01T22:46:43.830Z,3.38
2019-03-01T22:49:15.406Z,3.42
2019-03-01T22:51:49.648Z,3.50
2019-03-01T22:54:17.805Z,3.52
2019-03-01T22:56:48.443Z,3.54
2019-03-01T22:59:17.526Z,3.50
2019-03-01T23:01:49.615Z,3.64
2019-03-01T23:04:22.801Z,3.73
2019-03-01T23:06:54.429Z,3.79
2019-03-01T23:09:26.122Z,3.66
2019-03-01T23:11:55.157Z,3.71
2019-03-01T23:14:30.718Z,3.63
2019-03-01T23:16:58.649Z,3.70
2019-03-01T23:19:27.213Z,3.77
2019-03-01T23:21:58.839Z,3.74
2019-03-01T23:24:31.748Z,3.60
2019-03-01T23:27:00.565Z,3.62
2019-03-01T23:29:32.554Z,3.62
2019-03-01T23:32:01.097Z,3.51
2019-03-01T23:34:32.630Z,3.42
2019-03-01T23:37:03.578Z,3.38
2019-03-01T23:39:34.902Z,3.48
2019-03-01T23:42:06.401Z,3.49
2019-03-01T23:44:38.620Z,3.50
2019-03-01T23:47:10.096Z,3.34
2019-03-01T23:49:38.749Z,3.36
2019-03-01T23:52:07.539Z,3.48
2019-03-01T23:54:44.199Z,3.37
2019-03-01T23:57:15.053Z,3.20
2019-03-01T23:59:43.685Z,3.21
